Terminal Aerodrome Forecast
Issued by NWS

Home | Current Version | Previous Version | Text Only | Print | Product List | Glossary On
Versions: 1 2 3 4 5 6 7 8 9 10 11 12 13 14 15 16
000
FTUS43 KGRR 211401 AAA
TAFBTL
TAF AMD
KBTL 211401Z 2114/2212 20008KT 5SM -RA BR OVC035
     FM211530 21008KT 4SM -RA BR OVC010
     FM211800 25007KT P6SM OVC015
     FM212200 24007KT P6SM SCT015 SCT250
     FM220600 21006KT 3SM BR OVC008=

USA.gov is the U.S. government's official web portal to all federal, state and local government web resources and services.